Tiempo atmosférico en la estación meteorológica de Navalmoral De La Mata, Cáceres (269 m.)



Fecha
DESCASC
Temp. máxima en grados centígrados (hora)
DESCASC
Temp. mínima en grados centígrados (hora)
DESCASC
Temp. media en grados centígrados
DESCASC
Racha de viento máxima en m/sg (hora)
DESCASC
Velocidad máxima media en intervalos de 10 minutos(hora)
DESCASC
Precipitaciones diarias en mm
DESCASC
Precipitaciones de 00:00 a 06:00 en mm
DESCASC
Precipitaciones de 06:00 a 12:00 en mm
DESCASC
Precipitaciones de 12:00 a 18:00 en mm
DESCASC
Precipitaciones de 18:00 a 24:00 en mm
DESCASC
23-06-2019 33.8 (15:50) 17.4 (07:20) 25.6 8.61 (14:10) 3.89 (04:50) 0 0 0 0 0
22-06-2019 34.6 (17:50) 16.2 (04:40) 25.4 8.61 (17:50) 4.17 (10:30) 0 0 0 0 0
21-06-2019 32 (18:00) 12.8 (06:50) 22.4 8.33 (01:40) 4.72 (01:40) 0 0 0 0 0
20-06-2019 30.7 (17:40) 13.9 (00:00) 22.3 10.83 (19:00) 4.72 (19:00) 0 0 0 0 0
19-06-2019 28.1 (18:40) 17.3 (00:00) 22.7 11.39 (16:30) 5 (09:00) 0 0 0 0 0
18-06-2019 29.9 (14:50) 16.5 (00:00) 23.2 13.33 (17:30) 6.67 (18:00) 0 0 0 0 0
17-06-2019 33.7 (16:20) 11.6 (00:00) 22.7 11.11 (17:30) 5 (19:30) 0 0 0 0 0
16-06-2019 31.2 (15:50) 8.3 (00:00) 19.8 6.67 (17:00) 3.06 (15:10) 0 0 0 0 0
15-06-2019 28.3 (18:00) 11.3 (00:00) 19.8 9.44 (02:10) 5 (02:10) 0 0 0 0 0
14-06-2019 25.1 (17:50) 11.7 (00:00) 18.4 12.5 (20:20) 6.39 (14:10) 0 0 0 0 0
13-06-2019 29.2 (17:10) 10.2 (00:00) 19.7 10.56 (18:30) 5.56 (16:10) 0 0 0 0 0
12-06-2019 29.2 (18:00) 6.2 (00:00) 17.7 8.06 (17:10) 3.89 (10:30) 0 0 0 0 0
11-06-2019 25.7 (16:40) 11.4 (00:00) 18.6 11.94 (15:40) 6.39 (15:40) 0 0 0 0 0
10-06-2019 29.3 (18:10) 11.1 (00:00) 20.2 11.11 (18:30) 5.28 (20:10) 0 0 0 0 0
09-06-2019 28.6 (17:50) 11.6 (00:00) 20.1 12.22 (18:00) 5.56 (17:10) 0 0 0 0 0
08-06-2019 30.6 (17:10) 7.2 (00:00) 18.9 7.78 (14:20) 3.33 (17:30) 0 0 0 0 0
07-06-2019 24.8 (17:50) 10.1 (00:00) 17.4 15.56 (00:20) 6.94 (07:40) 0.2 0.2 0 0 0
06-06-2019 25.5 (17:20) 8.9 (00:00) 17.2 14.72 (20:20) 8.06 (21:00) 0.2 0 0 0 0.2
05-06-2019 24.1 (17:10) 12.3 (00:00) 18.2 15.83 (11:50) 7.5 (02:20) 0 0 0 0 0
04-06-2019 28.6 (15:40) 15.7 (00:00) 22.2 13.33 (19:30) 5.83 (15:20) 0 0 0 0 0
03-06-2019 35.9 (16:40) 20.8 (00:00) 28.4 14.17 (18:50) 7.5 (18:30) 0 0 0 0 0
02-06-2019 36.8 (17:00) 14.6 (00:00) 25.7 7.5 (17:00) 3.33 (18:20) 0 0 0 0 0
01-06-2019 36.6 (17:10) 14.1 (00:00) 25.3 9.72 (13:50) 4.17 (10:50) 0 0 0 0 0
31-05-2019 34.9 (16:10) 13.8 (00:00) 24.4 8.61 (09:40) 5 (10:10) 0 0 0 0 0
30-05-2019 33.4 (18:00) 13.3 (00:00) 23.4 11.11 (09:40) 6.11 (09:50) 0 0 0 0 0
29-05-2019 30.6 (17:20) 13.9 (00:00) 22.3 10.56 (08:50) 6.11 (09:40) 0 0 0 0 0
28-05-2019 32.2 (17:40) 15.2 (00:00) 23.7 8.89 (10:40) 5 (10:30) 0 0 0 0 0
27-05-2019 33.6 (17:30) 12.5 (00:00) 23 10.83 (18:10) 5.56 (16:20) 0 0 0 0 0
26-05-2019 31.2 (18:10) 10.7 (00:00) 21 5.83 (09:50) 2.78 (22:20) 0 0 0 0 0

Gráficas

Temp. máximas Temp. mínimas Temp. medias Precipitaciones Rachas de viento máximas Velocidades máximas media en intervalos de 10 minutos

Datos horarios

Fecha y hora oficial Temperatura (ºC) Velocidad del viento (km/h) Dirección del viento Racha (km/h) Dirección de racha Precipitación (mm) Presión (hPa) Tendencia (hPa) Humedad (%)
2019-06-24 23:00:00 20.4 12 Sudoeste 35 Sudoeste 0 982.6 1.1 54
2019-06-24 22:00:00 21.1 22 Oeste 39 Sudoeste 0 982.1 0.9 57
2019-06-24 21:00:00 21.8 19 Sudoeste 37 Oeste 0 981.7 0.9 51
2019-06-24 20:00:00 23 21 Oeste 46 Oeste 0 981.5 0.8 46
2019-06-24 19:00:00 25.8 23 Oeste 50 Oeste 0 981.2 1.1 42
2019-06-24 18:00:00 28.5 16 Oeste 43 Noroeste 0 980.8 0.7 38
2019-06-24 17:00:00 30.6 19 Oeste 51 Noroeste 0 980.7 0 33
2019-06-24 16:00:00 30.8 20 Oeste 42 Oeste 0 980.1 -1.1 34
2019-06-24 15:00:00 32.3 16 Sudoeste 38 Sudoeste 0 980.1 -1.5 25
2019-06-24 14:00:00 31.5 10 Sudoeste 30 Sudoeste 0 980.7 -0.9 29
2019-06-24 13:00:00 30 8 Oeste 24 Oeste 0 981.2 -0.4 34
2019-06-24 12:00:00 28.7 7 Noroeste 22 Noroeste 0 981.6 0.2 42
2019-06-24 11:00:00 27.3 6 Noroeste 20 Noroeste 0 981.6 0.6 48
2019-06-24 10:00:00 25.7 9 Oeste 21 Oeste 0 981.6 0.9 54
2019-06-24 09:00:00 24.1 11 Oeste 19 Oeste 0 981.4 1 58
2019-06-24 08:00:00 22.2 8 Oeste 18 Sudoeste 0 981 0.5 65
2019-06-24 07:00:00 22.2 9 Oeste 19 Sudoeste 0 980.7 0.4 64
2019-06-24 06:00:00 22.6 11 Oeste 24 Sudoeste 0 980.4 0 62
2019-06-24 05:00:00 22.5 13 Sudoeste 25 Sudoeste 0 980.5 0.3 62
2019-06-24 04:00:00 23 14 Sudoeste 31 Oeste 0 980.3 0 59
2019-06-24 03:00:00 23.8 14 Oeste 26 Oeste 0 980.4 0.2 56
2019-06-24 02:00:00 24.3 9 Sudoeste 24 Oeste 0 980.2 0.3 53
2019-06-24 01:00:00 24.9 12 Oeste 23 Oeste 0 980.3 0.9 48
2019-06-24 00:00:00 24.5 10 Sudoeste 18 Sudoeste 0 980.2 1.1 35
2019-06-23 23:00:00 25.9 8 Oeste 17 Oeste 0 979.9 1.1 31
2019-06-23 22:00:00 26.7 8 Oeste 13 Oeste 0 979.4 0.6 21
2019-06-23 21:00:00 29 8 Oeste 20 Noroeste 0 979.1 0 16
2019-06-23 20:00:00 30.3 4 Norte 18 Norte 0 978.8 -0.7 17
2019-06-23 19:00:00 30.8 9 Nordeste 19 Nordeste 0 978.8 -0.9 17
2019-06-23 18:00:00 31.8 9 Norte 19 Norte 0 979.1 -1.3 16
2019-06-23 17:00:00 33.3 9 Oeste 28 Oeste 0 979.5 -1.3 14
2019-06-23 16:00:00 33.6 12 Sudoeste 27 Sudoeste 0 979.7 -1.9 14
2019-06-23 15:00:00 32.9 10 Noroeste 31 Noroeste 0 980.4 -1.6 14
2019-06-23 14:00:00 32.2 6 Noroeste 26 Oeste 0 980.8 -1.4 14
2019-06-23 13:00:00 30.5 6 Noroeste 19 Oeste 0 981.6 -0.7 15
2019-06-23 12:00:00 28.6 5 Norte 17 Norte 0 982 0.2 20
2019-06-23 11:00:00 26.4 5 Noroeste 15 Noroeste 0 982.2 0.8 25
2019-06-23 10:00:00 24.1 4 Oeste 13 Noroeste 0 982.3 1.3 30
2019-06-23 09:00:00 20.9 4 Norte 17 Norte 0 981.8 1.1 36
2019-06-23 08:00:00 18.5 8 Nordeste 13 Nordeste 0 981.4 0.6 43
2019-06-23 07:00:00 17.9 6 Oeste 22 Sudoeste 0 981 0.4 41
2019-06-23 06:00:00 19.3 14 Sudoeste 23 Sudoeste 0 980.7 0.4 35
2019-06-23 05:00:00 19.9 14 Sudoeste 23 Oeste 0 980.8 0.7 28
2019-06-23 04:00:00 20.8 13 Oeste 21 Oeste 0 980.6 0.6 24
2019-06-23 03:00:00 20.9 9 Sudoeste 18 Sudoeste 0 980.3 0.2 23
2019-06-23 02:00:00 21.8 9 Sudoeste 16 Sudoeste 0 980.1 0.2 22
2019-06-23 01:00:00 22.6 8 Sudoeste 17 Sudoeste 0 980 0.8 22
2019-06-23 00:00:00 23.2 7 Oeste 14 Oeste 0 980.1 1 24
2019-06-22 23:00:00 23.8 6 Oeste 13 Oeste 0 979.9 0.8 31
2019-06-22 22:00:00 28.2 3 Oeste 10 Noroeste 0 979.2 0.1 23
2019-06-22 21:00:00 31.4 4 Noroeste 18 Oeste 0 979.1 -0.5 16
2019-06-22 20:00:00 32.5 10 Sudoeste 25 Oeste 0 979.1 -1 14
2019-06-22 19:00:00 33.6 6 Oeste 28 Oeste 0 979.1 -1.5 14
2019-06-22 18:00:00 34.4 9 Oeste 31 Sudoeste 0 979.6 -1.6 14
2019-06-22 17:00:00 33.6 8 Sudoeste 28 Norte 0 980.1 -2 15
2019-06-22 16:00:00 32.9 14 Sudoeste 28 Sudoeste 0 980.6 -2.2 16
2019-06-22 15:00:00 32.6 5 Noroeste 23 Sudoeste 0 981.2 -2 20
2019-06-22 14:00:00 30.9 8 Norte 20 Nordeste 0 982.1 -1.4 22
2019-06-22 13:00:00 30.3 5 Sur 21 Este 0 982.8 -0.8 24
2019-06-22 12:00:00 28.8 10 Este 26 Este 0 983.2 -0.5 30
2019-06-22 11:00:00 27.2 13 Este 28 Este 0 983.5 -0.1 35
2019-06-22 10:00:00 25.3 12 Este 24 Este 0 983.6 0.6 39
2019-06-22 09:00:00 22.3 8 Este 15 Este 0 983.7 0.8 44
2019-06-22 08:00:00 17.8 3 Este 11 Este 0 983.6 0.8 53
2019-06-22 07:00:00 18 10 Este 16 Este 0 983 0.1 50
2019-06-22 06:00:00 18.3 10 Este 16 Este 0 982.9 0.2 49
2019-06-22 05:00:00 16.6 9 Este 15 Este 0 982.8 0.2 58
2019-06-22 04:00:00 17.1 6 Este 12 Este 0 982.9 0.4 56
2019-06-22 03:00:00 16.8 5 Nordeste 11 Nordeste 0 982.7 0.2 59
2019-06-22 02:00:00 17.3 2 Sudeste 8 Sudeste 0 982.6 0.3 54
2019-06-22 01:00:00 19.6 5 Sudeste 8 Sur 0 982.5 0.8 51
2019-06-22 00:00:00 20.6 4 Sudoeste 9 Sudoeste 0 982.5 1 43
2019-06-21 23:00:00 22.5 4 Oeste 9 Oeste 0 982.3 1.1 37
2019-06-21 22:00:00 26.4 3 Noroeste 13 Noroeste 0 981.7 0.6 28
2019-06-21 21:00:00 29 6 Noroeste 19 Noroeste 0 981.5 0.1 23
2019-06-21 20:00:00 30.1 7 Noroeste 20 Noroeste 0 981.2 -0.4 22
2019-06-21 19:00:00 31.1 8 Noroeste 27 Oeste 0 981.1 -1.1 20
2019-06-21 18:00:00 31.9 9 Oeste 23 Noroeste 0 981.4 -1.4 20
2019-06-21 17:00:00 31.7 4 Oeste 23 Oeste 0 981.6 -1.7 19
2019-06-21 16:00:00 30.7 9 Oeste 23 Noroeste 0 982.2 -1.5 20
2019-06-21 15:00:00 29.8 7 Oeste 19 Sudoeste 0 982.8 -1.2 26
2019-06-21 14:00:00 28.2 8 Oeste 20 Sudoeste 0 983.3 -1 30
2019-06-21 13:00:00 26.6 10 Sudoeste 19 Sudoeste 0 983.7 -0.6 34
2019-06-21 12:00:00 24.6 9 Sudoeste 19 Sudoeste 0 984 0.1 40
2019-06-21 11:00:00 23 4 Oeste 17 Sudoeste 0 984.3 0.9 46
2019-06-21 10:00:00 21.3 6 Oeste 18 Oeste 0 984.3 1.5 51
2019-06-21 09:00:00 19 10 Oeste 19 Oeste 0 983.9 1.7 59
2019-06-21 08:00:00 16 6 Oeste 12 Oeste 0 983.4 1.4 70
2019-06-21 07:00:00 13.3 3 Noroeste 10 Oeste 0 982.8 1 78
2019-06-21 06:00:00 14.5 2 Oeste 9 Nordeste 0 982.2 0.5 73
2019-06-21 05:00:00 17.1 2 Noroeste 26 Sudoeste 0 982 0.6 63
2019-06-21 04:00:00 18.4 11 Sudoeste 28 Sudoeste 0 981.8 0.3 59
2019-06-21 03:00:00 19.3 14 Sudoeste 29 Sudoeste 0 981.7 0 57
2019-06-21 02:00:00 20.2 17 Sudoeste 30 Sudoeste 0 981.4 0.2 52
2019-06-21 01:00:00 20.9 15 Oeste 27 Oeste 0 981.5 1.2 48
2019-06-21 00:00:00 22 13 Oeste 25 Oeste 0 981.7 1.9 46
2019-06-20 23:00:00 23.1 10 Oeste 28 Noroeste 0 981.2 1.5 42
2019-06-20 22:00:00 24.7 5 Noroeste 22 Oeste 0 980.3 0.6 32
2019-06-20 21:00:00 27.1 9 Oeste 27 Oeste 0 979.8 -0.1 27
2019-06-20 20:00:00 28.2 14 Oeste 31 Noroeste 0 979.7 -0.6 24
2019-06-20 19:00:00 29 17 Oeste 39 Oeste 0 979.7 -1.1 24
2019-06-20 18:00:00 29.6 13 Oeste 31 Oeste 0 979.9 -1.4 25
2019-06-20 17:00:00 29.6 9 Oeste 32 Oeste 0 980.3 -1.6 27
2019-06-20 16:00:00 29.1 13 Oeste 38 Sudoeste 0 980.8 -1.5 27
2019-06-20 15:00:00 29.4 8 Oeste 32 Oeste 0 981.3 -1.4 28
2019-06-20 14:00:00 27.8 9 Oeste 28 Sudoeste 0 981.9 -0.6 31
2019-06-20 13:00:00 26.5 9 Oeste 30 Oeste 0 982.3 -0.5 35
2019-06-20 12:00:00 25.4 8 Oeste 21 Norte 0 982.7 0.1 42
2019-06-20 11:00:00 24.5 6 Noroeste 20 Noroeste 0 982.5 -0.1 46
2019-06-20 10:00:00 22.3 6 Noroeste 17 Noroeste 0 982.8 0.4 53
2019-06-20 09:00:00 19.9 6 Noroeste 14 Oeste 0 982.6 0.5 61
2019-06-20 08:00:00 16.2 2 Oeste 8 Norte 0 982.6 0.6 74
2019-06-20 07:00:00 14.1 4 Norte 9 Noroeste 0 982.4 0.3 80
2019-06-20 06:00:00 15.8 4 Noroeste 12 Oeste 0 982.1 0 75
2019-06-20 05:00:00 16.5 8 Oeste 11 Oeste 0 982 -0.4 73
2019-06-20 04:00:00 17.5 8 Oeste 16 Oeste 0 982.1 -0.5 68
2019-06-20 03:00:00 18.7 9 Sudoeste 21 Oeste 0 982.1 -0.5 62
2019-06-20 02:00:00 19.3 10 Oeste 18 Oeste 0 982.4 -0.2 58
2019-06-20 01:00:00 18.2 8 Sudoeste 13 Sudoeste 0 982.6 0.2 62
2019-06-20 00:00:00 18.4 5 Oeste 8 Oeste 0 982.6 0.1 63
2019-06-19 23:00:00 19.8 6 Oeste 10 Oeste 0 982.6 0.1 57
2019-06-19 22:00:00 23.2 2 Noroeste 9 Noroeste 0 982.4 -0.1 45
2019-06-19 21:00:00 25.2 4 Noroeste 18 Oeste 0 982.5 -0.3 38
2019-06-19 20:00:00 26.3 9 Oeste 27 Noroeste 0 982.5 -0.7 34
2019-06-19 19:00:00 27.4 12 Noroeste 30 Noroeste 0 982.5 -1 31
2019-06-19 18:00:00 26.6 11 Noroeste 29 Noroeste 0 982.8 -1.2 32
2019-06-19 17:00:00 27 10 Noroeste 41 Oeste 0 983.2 -1.3 33
2019-06-19 16:00:00 27.5 12 Oeste 33 Oeste 0 983.5 -1.1 31
2019-06-19 15:00:00 26.8 16 Sudoeste 33 Oeste 0 984 -1 34
2019-06-19 14:00:00 24.4 14 Sudoeste 27 Oeste 0 984.5 -0.4 43
2019-06-19 13:00:00 24.6 3 Noroeste 19 Sudoeste 0 984.6 -0.1 40
2019-06-19 12:00:00 22 8 Oeste 21 Noroeste 0 985 0.6 56
2019-06-19 11:00:00 20.6 12 Sudoeste 28 Oeste 0 984.9 0.9 63
2019-06-19 10:00:00 20.4 11 Oeste 26 Oeste 0 984.7 0.9 62
2019-06-19 09:00:00 19.6 18 Oeste 27 Oeste 0 984.4 0.5 64
2019-06-19 08:00:00 18.7 13 Sudoeste 22 Sudoeste 0 984 0.6 69
2019-06-19 07:00:00 17.4 12 Sudoeste 20 Sudoeste 0 983.8 0.5 72
2019-06-19 06:00:00 17.6 9 Oeste 19 Oeste 0 983.9 0.7 69
2019-06-19 05:00:00 18.4 12 Oeste 19 Oeste 0 983.4 0.3 66
2019-06-19 04:00:00 19.9 12 Oeste 23 Sudoeste 0 983.3 0.3 58
2019-06-19 03:00:00 19.3 4 Oeste 17 Oeste 0 983.2 0.4 54
2019-06-19 02:00:00 20.9 9 Oeste 23 Oeste 0 983.1 0.6 47
2019-06-19 01:00:00 21.9 9 Oeste 27 Noroeste 0 983 1.1 48
2019-06-19 00:00:00 22.2 8 Oeste 21 Oeste 0 982.8 1.2 52
2019-06-18 23:00:00 23.1 10 Oeste 21 Oeste 0 982.5 1.2 49
2019-06-18 22:00:00 24 8 Oeste 26 Oeste 0 981.9 0.7 44
2019-06-18 21:00:00 25.9 12 Oeste 32 Oeste 0 981.6 0.3 37
2019-06-18 20:00:00 27.2 12 Oeste 39 Oeste 0 981.3 -0.4 32
2019-06-18 19:00:00 27.6 19 Oeste 46 Oeste 0 981.2 -0.7 30
2019-06-18 18:00:00 28.1 24 Oeste 48 Noroeste 0 981.3 -0.6 29
2019-06-18 17:00:00 27.7 19 Oeste 40 Sudoeste 0 981.7 -0.6 32
2019-06-18 16:00:00 27.6 13 Oeste 46 Oeste 0 981.9 -0.8 34
2019-06-18 15:00:00 28.6 17 Oeste 41 Oeste 0 981.9 -0.9 24
2019-06-18 14:00:00 28.2 21 Sudoeste 39 Sudoeste 0 982.3 -0.7 16
2019-06-18 13:00:00 27.4 15 Oeste 32 Oeste 0 982.7 -0.4 16
2019-06-18 12:00:00 26.4 10 Oeste 28 Oeste 0 982.8 -0.3 17
2019-06-18 11:00:00 24.4 7 Sudoeste 23 Oeste 0 983 0.2 25
2019-06-18 10:00:00 23 9 Oeste 19 Oeste 0 983.1 0.8 32
2019-06-18 09:00:00 21.4 8 Oeste 18 Oeste 0 983.1 1.3 38
2019-06-18 08:00:00 18 5 Oeste 11 Oeste 0 982.8 1.4 48
2019-06-18 07:00:00 16.5 4 Sudoeste 13 Oeste 0 982.3 1 53
2019-06-18 06:00:00 18 8 Oeste 18 Oeste 0 981.8 0.6 48
2019-06-18 05:00:00 16.9 8 Oeste 14 Oeste 0 981.4 0 39
2019-06-18 04:00:00 18.9 5 Oeste 12 Oeste 0 981.3 -0.1 30
2019-06-18 03:00:00 21.9 4 Oeste 14 Sudoeste 0 981.2 0 23
2019-06-18 02:00:00 23.6 10 Oeste 23 Sudoeste 0 981.4 0.4 21
2019-06-18 01:00:00 22.7 8 Sudoeste 12 Sudoeste 0 981.4 0.9 23
2019-06-18 00:00:00 23.2 6 Sudoeste 8 Sudoeste 0 981.2 1 26
2019-06-17 23:00:00 24.6 4 Oeste 8 Oeste 0 981 0.7 21
2019-06-17 22:00:00 27.6 4 Noroeste 31 Oeste 0 980.5 0.2 14
2019-06-17 21:00:00 30.2 10 Sudoeste 26 Sudoeste 0 980.2 -0.6 11
2019-06-17 20:00:00 31 16 Sudoeste 36 Oeste 0 980.3 -1.2 11
2019-06-17 19:00:00 32.9 10 Oeste 36 Sudoeste 0 980.3 -1.8 11
2019-06-17 18:00:00 33.2 16 Sudoeste 40 Oeste 0 980.8 -2 10
2019-06-17 17:00:00 33.4 14 Sudoeste 32 Sudoeste 0 981.5 -2.2 10
2019-06-17 16:00:00 33.2 13 Oeste 28 Sur 0 982.1 -2.3 9
2019-06-17 15:00:00 31.2 7 Este 23 Sudeste 0 982.8 -2.1 15
2019-06-17 14:00:00 30.3 5 Sudeste 22 Sur 0 983.7 -1.7 19
2019-06-17 13:00:00 29.5 8 Sudeste 24 Este 0 984.4 -1 20
2019-06-17 12:00:00 27.4 7 Nordeste 15 Oeste 0 984.9 -0.6 24
2019-06-17 11:00:00 25.2 6 Oeste 14 Oeste 0 985.4 0.1 28
2019-06-17 10:00:00 23 3 Este 8 Norte 0 985.4 0.5 36
2019-06-17 09:00:00 19.3 0 Calma 7 Nordeste 0 985.5 0.9 45
2019-06-17 08:00:00 14.9 3 Nordeste 7 Nordeste 0 985.3 0.9 59
2019-06-17 07:00:00 11.6 3 Norte 9 Noroeste 0 984.9 0.6 65
2019-06-17 06:00:00 12.5 4 Norte 8 Este 0 984.6 0.3 60
2019-06-17 05:00:00 14 4 Sudeste 15 Oeste 0 984.4 0.3 54
2019-06-17 04:00:00 15.3 6 Sudoeste 15 Noroeste 0 984.3 -0.1 48
2019-06-17 03:00:00 16.3 6 Noroeste 16 Noroeste 0 984.3 0 44
2019-06-17 02:00:00 17.9 8 Oeste 15 Sudoeste 0 984.1 0 35
2019-06-17 01:00:00 15.2 5 Sudoeste 20 Oeste 0 984.4 1 54
2019-06-17 00:00:00 17 3 Nordeste 8 Nordeste 0 984.3 1.1 48
2019-06-16 23:00:00 19.6 2 Nordeste 8 Norte 0 984.1 0.8 41
2019-06-16 22:00:00 24.4 0 Calma 7 Oeste 0 983.4 0.4 28
2019-06-16 21:00:00 28.5 3 Norte 9 Nordeste 0 983.2 -0.1 19
2019-06-16 20:00:00 29.7 5 Nordeste 18 Norte 0 983.3 -0.3 15
2019-06-16 19:00:00 30.2 7 Norte 18 Noroeste 0 983 -1.2 15
2019-06-16 18:00:00 30.1 9 Norte 21 Norte 0 983.3 -1.3 15
2019-06-16 17:00:00 30.4 10 Nordeste 24 Nordeste 0 983.6 -1.8 15
2019-06-16 16:00:00 30.3 9 Nordeste 24 Este 0 984.2 -1.7 15
2019-06-16 15:00:00 30 9 Norte 22 Norte 0 984.6 -1.6 15
2019-06-16 14:00:00 28.8 9 Norte 19 Norte 0 985.4 -1 17
2019-06-16 13:00:00 27.3 5 Sudeste 19 Nordeste 0 985.9 -0.8 19
2019-06-16 12:00:00 25.7 8 Nordeste 23 Este 0 986.2 -0.4 23
2019-06-16 11:00:00 24.7 4 Este 18 Nordeste 0 986.4 0.1 27
2019-06-16 10:00:00 21.4 8 Este 13 Este 0 986.7 1 32
2019-06-16 09:00:00 17.2 3 Este 10 Nordeste 0 986.6 1.3 45
2019-06-16 08:00:00 11.5 2 Sudeste 4 Sudeste 0 986.3 1.2 69
2019-06-16 07:00:00 8.3 0 Calma 7 Sudeste 0 985.7 0.4 78
2019-06-16 06:00:00 9.2 3 Este 9 Nordeste 0 985.3 -0.2 75
2019-06-16 05:00:00 9.7 0 Calma 6 Este 0 985.1 -0.8 71
2019-06-16 04:00:00 11 5 Este 6 Este 0 985.3 -1.1 67
2019-06-16 03:00:00 12.2 4 Nordeste 8 Nordeste 0 985.5 -0.7 59
2019-06-16 02:00:00 13.3 3 Nordeste 5 Nordeste 0 985.9 0 51
2019-06-16 01:00:00 15.3 4 Sudoeste 7 Sudoeste 0 986.4 1.1 46
2019-06-16 00:00:00 16.6 4 Sur 7 Noroeste 0 986.2 0.9 40
2019-06-15 23:00:00 19.4 5 Noroeste 9 Oeste 0 985.9 1 29
2019-06-15 22:00:00 22 5 Oeste 14 Oeste 0 985.3 0.2 26
2019-06-15 21:00:00 25.4 5 Oeste 19 Oeste 0 985.3 -0.2 21
2019-06-15 20:00:00 26.5 8 Oeste 27 Noroeste 0 984.9 -1.1 19
2019-06-15 19:00:00 27.4 9 Oeste 18 Noroeste 0 985.1 -1.4 16
2019-06-15 18:00:00 28.1 6 Oeste 19 Noroeste 0 985.5 -1.4 18
2019-06-15 17:00:00 27.1 9 Noroeste 22 Oeste 0 986 -1.6 19
2019-06-15 16:00:00 26.3 3 Este 20 Oeste 0 986.5 -1.5 23
2019-06-15 15:00:00 25.1 8 Noroeste 18 Oeste 0 986.9 -1.3 24
2019-06-15 14:00:00 24.4 9 Noroeste 19 Noroeste 0 987.6 -0.6 25
2019-06-15 13:00:00 22.4 5 Sudeste 23 Oeste 0 988 -0.3 29
2019-06-15 12:00:00 21 5 Sudoeste 15 Sudoeste 0 988.2 0.5 34
2019-06-15 11:00:00 18.6 6 Sudoeste 14 Norte 0 988.2 1 43
2019-06-15 10:00:00 17.1 4 Noroeste 15 Oeste 0 988.3 1.4 47
2019-06-15 09:00:00 15.5 5 Oeste 14 Oeste 0 987.7 1.6 53
2019-06-15 08:00:00 13.9 0 Calma 9 Oeste 0 987.2 1 59
2019-06-15 07:00:00 11.5 3 Norte 21 Oeste 0 986.9 0.8 67
2019-06-15 06:00:00 12.5 13 Oeste 25 Sudoeste 0 986.1 0.1 64
2019-06-15 05:00:00 12.4 12 Sudoeste 25 Oeste 0 986.2 0.2 64
2019-06-15 04:00:00 13.5 15 Oeste 26 Sudoeste 0 986.1 0 59
2019-06-15 03:00:00 14.2 17 Oeste 34 Oeste 0 986 0.1 57
2019-06-15 02:00:00 15.1 15 Oeste 33 Oeste 0 986 0.5 54
2019-06-15 01:00:00 16.1 15 Oeste 28 Oeste 0 986.1 1.6 50
2019-06-15 00:00:00 16.8 10 Oeste 35 Oeste 0 985.9 2.1 46
2019-06-14 23:00:00 18 13 Oeste 30 Oeste 0 985.5 2.5 38
2019-06-14 22:00:00 19.2 15 Oeste 37 Oeste 0 984.5 2.4 33
2019-06-14 21:00:00 20.7 18 Oeste 45 Oeste 0 983.8 1.9 29
2019-06-14 20:00:00 22.2 20 Oeste 42 Oeste 0 983 1.1 26
2019-06-14 19:00:00 24.3 16 Oeste 40 Oeste 0 982.1 -0.2 22
2019-06-14 18:00:00 23.8 17 Oeste 41 Oeste 0 981.9 -0.6 21
2019-06-14 17:00:00 24.5 18 Oeste 43 Oeste 0 981.9 -0.6 23
2019-06-14 16:00:00 23.7 16 Oeste 43 Oeste 0 982.3 0.1 25
2019-06-14 15:00:00 23 15 Oeste 41 Sudoeste 0 982.5 0.5 26
2019-06-14 14:00:00 23.4 16 Oeste 43 Oeste 0 982.5 0.5 21
2019-06-14 13:00:00 22.4 17 Oeste 37 Oeste 0 982.2 0.7 26
2019-06-14 12:00:00 21.1 16 Oeste 32 Oeste 0 982 0.7 28
2019-06-14 11:00:00 20 8 Norte 26 Oeste 0 982 1.4 35
2019-06-14 10:00:00 17.5 11 Oeste 27 Oeste 0 981.5 1.1 44
2019-06-14 09:00:00 15.8 9 Oeste 25 Oeste 0 981.3 1.2 51
2019-06-14 08:00:00 13.4 8 Oeste 18 Noroeste 0 980.6 0.9 58
2019-06-14 07:00:00 11.8 9 Oeste 19 Sudoeste 0 980.4 1.3 62
2019-06-14 06:00:00 12.7 12 Sudoeste 21 Oeste 0 980.1 1.1 57
2019-06-14 05:00:00 14.1 13 Oeste 30 Oeste 0 979.7 1.1 50
2019-06-14 04:00:00 15.6 18 Oeste 31 Oeste 0 979.1 0.8 45
2019-06-14 03:00:00 16.8 15 Sudoeste 30 Sudoeste 0 979 1.2 42
2019-06-14 02:00:00 17.9 15 Sudoeste 28 Sudoeste 0 978.6 1.2 39
2019-06-14 01:00:00 18.2 13 Sudoeste 22 Oeste 0 978.3 1.5 32
2019-06-14 00:00:00 17.7 8 Sudoeste 13 Oeste 0 977.8 1.4 29
2019-06-13 23:00:00 20.2 5 Oeste 17 Oeste 0 977.4 1.3 22
2019-06-13 22:00:00 22.3 7 Sudoeste 12 Sudoeste 0 976.8 0.7 20
2019-06-13 21:00:00 25.3 4 Sudoeste 12 Oeste 0 976.4 0 18
2019-06-13 20:00:00 26.3 6 Oeste 19 Noroeste 0 976.1 -0.5 13
2019-06-13 19:00:00 27.4 11 Oeste 38 Oeste 0 976.1 -1 11
2019-06-13 18:00:00 28.4 18 Oeste 35 Sudoeste 0 976.4 -1.1 11
2019-06-13 17:00:00 28.8 9 Oeste 33 Sudoeste 0 976.6 -1.5 11
2019-06-13 16:00:00 28.5 15 Oeste 35 Oeste 0 977.1 -1.6 11
2019-06-13 15:00:00 27.5 10 Sudoeste 30 Sudoeste 0 977.5 -1.7 12
2019-06-13 14:00:00 25.9 6 Norte -- -- -- 978.1 -1.3 19
2019-06-13 13:00:00 24.2 4 Sudeste 19 Noroeste 0 978.7 -0.7 23
2019-06-13 12:00:00 23.2 2 Norte 11 Sur 0 979.2 0.2 25
2019-06-13 11:00:00 20.8 4 Noroeste 13 Norte 0 979.4 1 32
2019-06-13 10:00:00 18.4 3 Este 12 Noroeste 0 979.4 1.5 40
2019-06-13 09:00:00 15.2 6 Oeste 15 Oeste 0 979 1.3 50
2019-06-13 08:00:00 13.2 4 Noroeste 9 Noroeste 0 978.4 0.9 57
2019-06-13 07:00:00 10.2 5 Oeste 15 Oeste 0 977.9 0.7 66
2019-06-13 06:00:00 10.9 7 Oeste 18 Noroeste 0 977.7 0.5 64
2019-06-13 05:00:00 11.1 6 Oeste 12 Noroeste 0 977.5 0.1 61
2019-06-13 04:00:00 14.7 4 Noroeste 19 Sudoeste 0 977.2 -0.2 51
2019-06-13 03:00:00 16.1 13 Sudoeste 24 Sudoeste 0 977.2 0 45
2019-06-13 02:00:00 17.8 15 Sudoeste 24 Sudoeste 0 977.4 0.4 36
2019-06-13 01:00:00 16.4 14 Sudoeste 22 Sudoeste 0 977.4 0.9 32
2019-06-13 00:00:00 14.6 5 Sudoeste 6 Sur 0 977.2 0.8 41
2019-06-12 23:00:00 17 5 Oeste 8 Oeste 0 977 0.7 31
2019-06-12 22:00:00 22.1 3 Norte 14 Noroeste 0 976.5 0 22
2019-06-12 21:00:00 25.7 6 Noroeste 26 Noroeste 0 976.4 -0.7 14
2019-06-12 20:00:00 27.1 6 Oeste 24 Oeste 0 976.3 -1.6 11
2019-06-12 19:00:00 27.9 5 Norte 23 Oeste 0 976.5 -2 11
2019-06-12 18:00:00 28.6 8 Noroeste 29 Oeste 0 977.1 -2.3 11
2019-06-12 17:00:00 28.4 8 Noroeste 24 Noroeste 0 977.9 -2.5 11
2019-06-12 16:00:00 27.1 9 Nordeste 25 Noroeste 0 978.5 -2.7 12
2019-06-12 15:00:00 26.6 6 Oeste 23 Oeste 0 979.4 -2.2 13
2019-06-12 14:00:00 26 7 Norte 19 Nordeste 0 980.4 -1.5 13
2019-06-12 13:00:00 24.7 6 Sur 21 Sur 0 981.2 -1 15
2019-06-12 12:00:00 23.1 8 Nordeste 22 Este 0 981.6 -0.6 19
2019-06-12 11:00:00 21.3 14 Este 26 Este 0 981.9 -0.1 23
2019-06-12 10:00:00 19.5 14 Este 26 Este 0 982.2 0.7 26
2019-06-12 09:00:00 16.2 6 Este 13 Este 0 982.2 0.9 33
2019-06-12 08:00:00 11.6 4 Este 10 Este 0 982 0.7 48
2019-06-12 07:00:00 6.3 0 Calma 6 Sudeste 0 981.5 0.2 64
2019-06-12 06:00:00 7.7 4 Sudeste 9 Sudeste 0 981.3 -0.2 58
2019-06-12 05:00:00 8.7 2 Sur 11 Nordeste 0 981.3 -0.6 51
2019-06-12 04:00:00 10.1 9 Nordeste 14 Nordeste 0 981.3 -0.6 46
2019-06-12 03:00:00 10.4 5 Este 9 Nordeste 0 981.5 -0.4 46
2019-06-12 02:00:00 10.6 3 Oeste 9 Sur 0 981.9 0.1 45
2019-06-12 01:00:00 13.6 7 Sur 12 Sur 0 981.9 0.9 34
2019-06-12 00:00:00 15.5 2 Norte 13 Este 0 981.9 1.1 29
2019-06-11 23:00:00 18.8 9 Este 15 Este 0 981.8 1.4 20
2019-06-11 22:00:00 19.7 5 Nordeste 18 Norte 0 981 0.7 19
2019-06-11 21:00:00 22.9 10 Norte 22 Norte 0 980.8 0.6 14
2019-06-11 20:00:00 24.1 10 Este 26 Norte 0 980.4 0.1 12
2019-06-11 19:00:00 24.7 15 Norte 32 Nordeste 0 980.3 0 12
2019-06-11 18:00:00 25.2 18 Nordeste 39 Nordeste 0 980.2 0.1 13
2019-06-11 17:00:00 25.3 16 Nordeste 37 Norte 0 980.3 0.3 13
2019-06-11 16:00:00 25.2 19 Norte 43 Norte 0 980.3 0.8 16
2019-06-11 15:00:00 25.2 15 Nordeste 35 Norte 0 980.1 0.5 18
2019-06-11 14:00:00 24.6 18 Norte 35 Nordeste 0 980 0.6 20
2019-06-11 13:00:00 24.4 11 Norte 28 Nordeste 0 979.5 0.4 24
2019-06-11 12:00:00 24 11 Nordeste 25 Sudeste 0 979.6 0.6 27
2019-06-11 11:00:00 22.8 10 Este 28 Este 0 979.4 0.7 30
2019-06-11 10:00:00 21.6 6 Sudeste 15 Sur 0 979.1 0.6 34
2019-06-11 09:00:00 19.3 3 Sudeste 9 Nordeste 0 979 0.6 43
2019-06-11 08:00:00 13.5 2 Oeste 7 Nordeste 0 978.7 0.1 63
2019-06-11 07:00:00 11.6 3 Oeste 6 Sur 0 978.5 -0.4 68
2019-06-11 06:00:00 13.3 0 Calma 10 Sudoeste 0 978.4 -0.9 61
2019-06-11 05:00:00 16 2 Sudoeste 25 Sudoeste 0 978.6 -1.2 52
2019-06-11 04:00:00 17.4 16 Sudoeste 35 Oeste 0 978.9 -1.1 48
2019-06-11 03:00:00 18.1 13 Sudoeste 25 Oeste 0 979.3 -0.9 44
2019-06-11 02:00:00 18.9 9 Oeste 23 Sudoeste 0 979.8 -1 35
2019-06-11 01:00:00 20.1 11 Sudoeste 26 Oeste 0 980 -0.3 28
2019-06-11 00:00:00 21.5 12 Oeste 28 Oeste 0 980.2 0 23
2019-06-10 23:00:00 20.5 8 Sudoeste 19 Noroeste 0 980.8 0.7 23
2019-06-10 22:00:00 23.7 8 Oeste 33 Noroeste 0 980.3 -0.3 16
2019-06-10 21:00:00 25.9 14 Oeste 38 Oeste 0 980.2 -0.9 14
2019-06-10 20:00:00 27.1 15 Oeste 39 Oeste 0 980.1 -1.5 14
2019-06-10 19:00:00 28.5 15 Oeste 40 Oeste 0 980.6 -1.6 14
2019-06-10 18:00:00 29 15 Oeste 39 Sudoeste 0 981.1 -1.7 14
2019-06-10 17:00:00 28.8 14 Oeste 35 Oeste 0 981.6 -2 15
2019-06-10 16:00:00 28.9 10 Oeste 28 Noroeste 0 982.2 -2.2 19
2019-06-10 15:00:00 27.7 12 Sudoeste 32 Oeste 0 982.8 -2 21
2019-06-10 14:00:00 27.3 6 Oeste 31 Sudoeste 0 983.6 -1.5 21
2019-06-10 13:00:00 26.2 8 Sudoeste 21 Sudoeste 0 984.4 -0.9 24
2019-06-10 12:00:00 24.3 6 Oeste 18 Oeste 0 984.8 -0.2 28
2019-06-10 11:00:00 22.4 6 Oeste 18 Oeste 0 985.1 0.4 35
2019-06-10 10:00:00 20.2 5 Noroeste 17 Oeste 0 985.3 1.1 42
2019-06-10 09:00:00 17.5 6 Oeste 17 Oeste 0 985 0.8 51
2019-06-10 08:00:00 13.5 4 Oeste 8 Oeste 0 984.7 0.6 63
2019-06-10 07:00:00 11.2 4 Sudeste 8 Este 0 984.2 -0.2 71
2019-06-10 06:00:00 12.9 5 Norte 17 Sudoeste 0 984.2 -0.4 63
2019-06-10 05:00:00 13.7 7 Sur 12 Sur 0 984.1 -0.7 61
2019-06-10 04:00:00 15.3 8 Sudoeste 19 Sudoeste 0 984.4 -0.3 56
2019-06-10 03:00:00 14.9 9 Sudoeste 17 Sudoeste 0 984.6 0.2 55
2019-06-10 02:00:00 15.9 6 Sudoeste 12 Oeste 0 984.8 0.8 48
2019-06-10 01:00:00 16.8 8 Sudoeste 14 Oeste 0 984.7 1.3 44
2019-06-10 00:00:00 19 7 Oeste 17 Noroeste 0 984.4 1.3 35
2019-06-09 23:00:00 20.9 10 Oeste 26 Noroeste 0 984 0.9 31
2019-06-09 22:00:00 22.6 13 Oeste 22 Oeste 0 983.4 0.6 27
2019-06-09 21:00:00 24.2 7 Oeste 28 Oeste 0 983.1 0.2 24
2019-06-09 20:00:00 25.9 12 Oeste 36 Oeste 0 983.1 0 19
2019-06-09 19:00:00 27.9 12 Noroeste 37 Oeste 0 982.8 -0.9 16
2019-06-09 18:00:00 28.1 16 Oeste 44 Noroeste 0 982.9 -1.3 16
2019-06-09 17:00:00 28 12 Noroeste 38 Oeste 0 983.1 -1.7 19
2019-06-09 16:00:00 27.3 17 Oeste 36 Noroeste 0 983.7 -1.7 22
2019-06-09 15:00:00 27.4 12 Oeste 33 Oeste 0 984.2 -1.5 18
2019-06-09 14:00:00 26.5 9 Noroeste 32 Sudoeste 0 984.8 -1.2 19
2019-06-09 13:00:00 24.1 15 Oeste 34 Sudoeste 0 985.4 -0.7 15
2019-06-09 12:00:00 22.4 15 Oeste 36 Sudoeste 0 985.7 -0.4 20
2019-06-09 11:00:00 20.5 14 Oeste 26 Oeste 0 986 0.5 29
2019-06-09 10:00:00 18.3 14 Sudoeste 24 Oeste 0 986.1 1 38
2019-06-09 09:00:00 16.6 11 Oeste 24 Oeste 0 986.1 1.5 47
2019-06-09 08:00:00 13.8 12 Oeste 22 Oeste 0 985.5 1 58
2019-06-09 07:00:00 11.7 6 Oeste 16 Oeste 0 985.1 0.5 69
2019-06-09 06:00:00 12 5 Noroeste 12 Noroeste 0 984.6 -0.3 68
2019-06-09 05:00:00 15 6 Oeste 16 Oeste 0 984.5 -0.3 56
2019-06-09 04:00:00 17.1 11 Oeste 19 Sudoeste 0 984.6 0.1 51
2019-06-09 03:00:00 17.6 12 Sudoeste 23 Sudoeste 0 984.9 0.5 49
2019-06-09 02:00:00 18 12 Sudoeste 21 Sudoeste 0 984.8 0.8 46
2019-06-09 01:00:00 18.4 11 Sudoeste 18 Sudoeste 0 984.5 1 33
2019-06-09 00:00:00 18.5 7 Sudoeste 13 Sudoeste 0 984.4 1.2 28
2019-06-08 23:00:00 18.4 5 Oeste 8 Noroeste 0 984 1 30
2019-06-08 22:00:00 22 3 Noroeste 8 Noroeste 0 983.5 0.4 24
2019-06-08 21:00:00 24.9 6 Oeste 20 Oeste 0 983.2 -0.1 16
2019-06-08 20:00:00 27.5 9 Oeste 22 Oeste 0 983 -0.5 13
2019-06-08 19:00:00 27.9 11 Oeste 23 Oeste 0 983.1 -1.2 12
2019-06-08 18:00:00 29.9 7 Oeste 27 Oeste 0 983.3 -1.6 12
2019-06-08 17:00:00 30.1 9 Sudeste 27 Sur 0 983.5 -2 12
2019-06-08 16:00:00 29.9 9 Sur 22 Sur 0 984.3 -1.8 13
2019-06-08 15:00:00 29.3 6 Sudoeste 28 Sudeste 0 984.9 -1.7 13
2019-06-08 14:00:00 28 11 Este 26 Este 0 985.5 -1.6 14
2019-06-08 13:00:00 26.9 10 Sudeste 24 Este 0 986.1 -1.5 16
2019-06-08 12:00:00 24.8 9 Sudeste 22 Este 0 986.6 -1.3 19
2019-06-08 11:00:00 22.5 6 Nordeste 20 Nordeste 0 987.1 -1.1 23
2019-06-08 10:00:00 20.2 9 Este 17 Este 0 987.6 -0.4 28
2019-06-08 09:00:00 17.2 4 Este 8 Este 0 987.9 0.1 35
2019-06-08 08:00:00 11.1 5 Sudeste 11 Sudeste 0 988.2 0.5 58
2019-06-08 07:00:00 7.8 6 Este 9 Este 0 988 0.5 77
2019-06-08 06:00:00 7.3 6 Nordeste 11 Nordeste 0 987.8 0.2 76
2019-06-08 05:00:00 8.2 3 Este 8 Este 0 987.7 0.3 71
2019-06-08 04:00:00 8.8 5 Este 9 Este 0 987.5 0 66
2019-06-08 03:00:00 10.2 5 Este 10 Este 0 987.6 0.3 61
2019-06-08 02:00:00 11.8 3 Oeste 8 Sudoeste 0 987.4 0.4 52
2019-06-08 01:00:00 13.9 6 Sudoeste 12 Sudoeste 0 987.5 1 45
2019-06-08 00:00:00 14.4 7 Sudoeste 10 Sudoeste 0 987.3 1 42
2019-06-07 23:00:00 16.4 5 Sudoeste 10 Oeste 0 987 1 36
2019-06-07 22:00:00 19.1 5 Oeste 17 Oeste 0 986.5 0.9 30
2019-06-07 21:00:00 21.7 7 Oeste 21 Noroeste 0 986.3 0.7 24
2019-06-07 20:00:00 22.9 10 Oeste 26 Noroeste 0 986 0.4 22
2019-06-07 19:00:00 24 9 Oeste 26 Noroeste 0 985.6 -0.2 20
2019-06-07 18:00:00 24.2 10 Noroeste 30 Oeste 0 985.6 -0.1 21
2019-06-07 17:00:00 24.2 12 Oeste 26 Oeste 0 985.6 -0.1 21
2019-06-07 16:00:00 23.4 9 Oeste 30 Sudoeste 0 985.8 0.1 23
2019-06-07 15:00:00 23.1 9 Oeste 30 Norte 0 985.7 0.2 23
2019-06-07 14:00:00 22 6 Norte 24 Norte 0 985.7 0.5 24
2019-06-07 13:00:00 21 7 Norte 23 Norte 0 985.7 1.1 26
2019-06-07 12:00:00 19.1 12 Oeste 27 Sudoeste 0 985.5 1.7 32
2019-06-07 11:00:00 17.4 13 Oeste 36 Oeste 0 985.2 2.4 37
2019-06-07 10:00:00 15.6 15 Oeste 36 Oeste 0 984.6 2.3 52
2019-06-07 09:00:00 13.5 15 Oeste 42 Sudoeste 0 983.8 1.9 65
2019-06-07 08:00:00 11.3 22 Oeste 43 Oeste 0 982.8 1.5 77
2019-06-07 07:00:00 10.2 21 Oeste 35 Oeste 0 982.3 1.5 82
2019-06-07 06:00:00 10.6 17 Oeste 38 Sudoeste 0 981.9 1.8 83
2019-06-07 05:00:00 11.2 19 Oeste 31 Oeste 0 981.3 1.5 82
2019-06-07 04:00:00 12.2 20 Oeste 47 Oeste 0 980.8 1.6 79
2019-06-07 03:00:00 13.6 24 Oeste 40 Oeste 0 980.1 1.6 74
2019-06-07 02:00:00 13.4 16 Oeste 43 Oeste 0.2 979.8 2.3 81
2019-06-07 01:00:00 14.5 17 Oeste 56 Oeste 0 979.2 2.5 84
2019-06-07 00:00:00 15.6 14 Oeste 44 Oeste 0.2 978.5 2.3 83
2019-06-06 23:00:00 20.4 22 Oeste 50 Sudoeste 0 977.5 1.2 44
2019-06-06 22:00:00 21.5 27 Oeste 50 Oeste 0 976.7 0.1 36
2019-06-06 21:00:00 22.3 29 Sudoeste 53 Sudoeste 0 976.2 -0.9 32
2019-06-06 20:00:00 23.2 26 Oeste 47 Oeste 0 976.3 -1.4 28
2019-06-06 19:00:00 23.9 21 Sudoeste 41 Sudoeste 0 976.6 -2.2 25
2019-06-06 18:00:00 24.9 24 Sudoeste 48 Oeste 0 977.1 -2.7 22
2019-06-06 17:00:00 24.8 17 Sudoeste 44 Sudoeste 0 977.7 -2.9 21
2019-06-06 16:00:00 24.7 10 Oeste 36 Oeste 0 978.8 -2.5 22
2019-06-06 15:00:00 23.4 17 Oeste 39 Oeste 0 979.8 -1.8 21
2019-06-06 14:00:00 21.8 12 Oeste 36 Sudoeste 0 980.6 -1.5 25
2019-06-06 13:00:00 20.4 15 Sudoeste 32 Sudoeste 0 981.3 -1.3 27
2019-06-06 12:00:00 19.4 9 Oeste 24 Sudoeste 0 981.6 -1.2 34
2019-06-06 11:00:00 17.6 6 Noroeste 16 Noroeste 0 982.1 -0.5 41
2019-06-06 10:00:00 16.4 6 Noroeste 17 Noroeste 0 982.6 0.4 45
2019-06-06 09:00:00 14.2 4 Noroeste 8 Oeste 0 982.8 0.7 52
2019-06-06 08:00:00 11.2 4 Norte 8 Nordeste 0 982.6 0.5 63
2019-06-06 07:00:00 9.6 4 Sudeste 15 Sudoeste 0 982.2 -0.1 65
2019-06-06 06:00:00 10.9 9 Sudoeste 19 Sudoeste 0 982.1 -0.3 61
2019-06-06 05:00:00 11.6 9 Sudoeste 19 Sudoeste 0 982.1 -0.3 59
2019-06-06 04:00:00 12.4 11 Sudoeste 19 Oeste 0 982.3 -0.2 55
2019-06-06 03:00:00 13 9 Sudoeste 21 Sudoeste 0 982.4 0.1 50
2019-06-06 02:00:00 13.8 12 Oeste 25 Oeste 0 982.4 0.3 46
2019-06-06 01:00:00 14.9 13 Oeste 25 Oeste 0 982.5 1 41
2019-06-06 00:00:00 16.1 12 Oeste 23 Oeste 0 982.3 0.9 36
2019-06-05 23:00:00 18.1 13 Oeste 30 Oeste 0 982.1 1 32
2019-06-05 22:00:00 19.3 8 Oeste 25 Noroeste 0 981.5 0.4 30
2019-06-05 21:00:00 20.7 10 Oeste 28 Noroeste 0 981.4 0.1 26
2019-06-05 20:00:00 22 14 Oeste 31 Oeste 0 981.1 -0.5 22
2019-06-05 19:00:00 23.3 11 Oeste 41 Oeste 0 981.1 -0.9 20
2019-06-05 18:00:00 23.9 13 Oeste 43 Noroeste 0 981.3 -0.9 21
2019-06-05 17:00:00 23.9 15 Oeste 44 Oeste 0 981.6 -0.9 21
2019-06-05 16:00:00 23.6 18 Oeste 56 Oeste 0 982 -0.3 22
2019-06-05 15:00:00 22.6 19 Oeste 49 Noroeste 0 982.2 0.3 24
2019-06-05 14:00:00 22.2 20 Oeste 52 Oeste 0 982.5 0.8 25
2019-06-05 13:00:00 21.7 15 Noroeste 52 Noroeste 0 982.3 1 28
2019-06-05 12:00:00 21.1 16 Noroeste 57 Noroeste 0 981.9 1 26
2019-06-05 11:00:00 18.2 26 Oeste 50 Oeste 0 981.7 1.4 38
2019-06-05 10:00:00 17.4 20 Oeste 47 Oeste 0 981.3 1.7 38
2019-06-05 09:00:00 15.5 19 Oeste 46 Oeste 0 980.9 1.9 47
2019-06-05 08:00:00 14.1 14 Oeste 36 Oeste 0 980.3 1.9 52
2019-06-05 07:00:00 12.3 20 Oeste 49 Oeste 0 979.6 1.8 60
2019-06-05 06:00:00 13.1 22 Oeste 41 Oeste 0 979 1.2 57
2019-06-05 05:00:00 14 21 Oeste 44 Oeste 0 978.4 0.5 53
2019-06-05 04:00:00 14.6 23 Oeste 51 Oeste 0 977.8 -0.4 50
2019-06-05 03:00:00 14.9 23 Sudoeste 48 Sudoeste 0 977.8 -0.6 51
2019-06-05 02:00:00 15.6 22 Sudoeste 43 Oeste 0 977.9 -0.5 47
2019-06-05 01:00:00 17.3 23 Oeste 45 Oeste 0 978.2 0.4 44
2019-06-05 00:00:00 18.7 20 Oeste 40 Noroeste 0 978.4 0.6 44
2019-06-04 23:00:00 19.6 14 Oeste 36 Oeste 0 978.4 0.7 44
2019-06-04 22:00:00 20.4 10 Oeste 27 Noroeste 0 977.8 0.3 46
2019-06-04 21:00:00 22.1 13 Oeste 45 Noroeste 0 977.8 0 46
2019-06-04 20:00:00 24.2 17 Oeste 48 Oeste 0 977.7 -0.5 43
2019-06-04 19:00:00 26.2 17 Oeste 48 Oeste 0 977.5 -1.1 33
2019-06-04 18:00:00 27 19 Oeste 42 Oeste 0 977.8 -1.4 28
2019-06-04 17:00:00 27.3 17 Oeste 39 Noroeste 0 978.2 -1.8 27
2019-06-04 16:00:00 27.6 17 Oeste 41 Oeste 0 978.6 -2 27
2019-06-04 15:00:00 27.2 15 Oeste 38 Noroeste 0 979.2 -1.9 31
2019-06-04 14:00:00 26.4 15 Oeste 39 Sudoeste 0 980 -1.4 34
2019-06-04 13:00:00 25.1 11 Noroeste 38 Sudoeste 0 980.6 -1.1 37
2019-06-04 12:00:00 23.4 12 Oeste 31 Oeste 0 981.1 -0.4 43
2019-06-04 11:00:00 21.7 13 Sudoeste 26 Oeste 0 981.4 0.2 52
2019-06-04 10:00:00 20.3 10 Oeste 27 Oeste 0 981.7 1 60
2019-06-04 09:00:00 19 14 Oeste 30 Oeste 0 981.5 1.3 67
2019-06-04 08:00:00 17.5 12 Oeste 20 Oeste 0 981.2 1 73
2019-06-04 07:00:00 16.1 5 Noroeste 10 Oeste 0 980.7 0.2 74
2019-06-04 06:00:00 17.4 6 Oeste 19 Sudoeste 0 980.2 -0.6 71
2019-06-04 05:00:00 18.5 10 Sudoeste 20 Sudoeste 0 980.2 -1 66
2019-06-04 04:00:00 19.4 12 Sudoeste 22 Oeste 0 980.5 -0.8 61
2019-06-04 03:00:00 20.9 12 Oeste 25 Oeste 0 980.8 -0.3 56
2019-06-04 02:00:00 22.1 13 Oeste 24 Oeste 0 981.2 0.4 52
2019-06-04 01:00:00 23.5 12 Oeste 27 Oeste 0 981.3 1.1 46
2019-06-04 00:00:00 24.2 6 Oeste 16 Noroeste 0 981.1 1 43
2019-06-03 23:00:00 25.1 5 Oeste 18 Noroeste 0 980.8 0.6 34
2019-06-03 22:00:00 28.1 8 Oeste 21 Noroeste 0 980.2 0 25
2019-06-03 21:00:00 30.9 15 Oeste 40 Oeste 0 980.1 -0.5 15
2019-06-03 20:00:00 32.7 18 Oeste 45 Oeste 0 980.2 -0.9 12
2019-06-03 19:00:00 34 26 Oeste 51 Sudoeste 0 980.2 -1.7 10
2019-06-03 18:00:00 35.2 21 Oeste 45 Oeste 0 980.6 -2.1 10
2019-06-03 17:00:00 35.8 19 Oeste 44 Oeste 0 981.1 -2.4 10
2019-06-03 16:00:00 35.1 11 Oeste 30 Oeste 0 981.9 -2.2 10
2019-06-03 15:00:00 33.3 10 Norte 28 Oeste 0 982.7 -1.9 10
2019-06-03 14:00:00 33 6 Noroeste 23 Noroeste 0 983.5 -1.1 14
2019-06-03 13:00:00 31.2 9 Oeste 29 Oeste 0 984.1 -0.5 15
2019-06-03 12:00:00 29.8 8 Oeste 23 Noroeste 0 984.6 0.2 21
2019-06-03 11:00:00 28.7 7 Noroeste 21 Oeste 0 984.6 0.9 24
2019-06-03 10:00:00 26.5 10 Oeste 26 Oeste 0 984.6 1.2 26
2019-06-03 09:00:00 23.5 3 Nordeste 12 Nordeste 0 984.4 1.4 35
2019-06-03 08:00:00 23.1 3 Oeste 23 Sudoeste 0 983.7 0.7 35
2019-06-03 07:00:00 21.3 13 Sudoeste 21 Sudoeste 0 983.4 0.3 35
2019-06-03 06:00:00 21.2 12 Oeste 22 Sudoeste 0 983 -0.2 35
2019-06-03 05:00:00 22.8 13 Oeste 22 Oeste 0 983 -0.2 31
2019-06-03 04:00:00 23.4 13 Sudoeste 24 Sudoeste 0 983.1 -0.2 28
2019-06-03 03:00:00 22.7 11 Oeste 19 Sudoeste 0 983.2 -0.1 28
2019-06-03 02:00:00 23.9 11 Sudoeste 22 Sudoeste 0 983.2 0.1 27
2019-06-03 01:00:00 24.3 12 Sudoeste 19 Oeste 0 983.3 0.8 27
2019-06-03 00:00:00 24.7 9 Sudoeste 15 Oeste 0 983.3 1.2 28
2019-06-02 23:00:00 26.6 9 Oeste 18 Oeste 0 983.1 1 24
2019-06-02 22:00:00 26.7 5 Oeste 9 Noroeste 0 982.5 0.3 36
2019-06-02 21:00:00 30.6 3 Noroeste 8 Nordeste 0 982.1 -0.3 30
2019-06-02 20:00:00 33.2 5 Nordeste 17 Nordeste 0 982.1 -0.7 19
2019-06-02 19:00:00 34.6 9 Norte 23 Norte 0 982.2 -1.2 14
2019-06-02 18:00:00 35.3 8 Oeste 24 Oeste 0 982.4 -1.5 14
2019-06-02 17:00:00 36.6 8 Noroeste 27 Noroeste 0 982.8 -2.1 13
2019-06-02 16:00:00 35.7 6 Noroeste 23 Noroeste 0 983.4 -2.2 13
2019-06-02 15:00:00 35.1 5 Norte 18 Oeste 0 983.9 -2.1 13
2019-06-02 14:00:00 34.3 5 Sudoeste 19 Sudoeste 0 984.9 -1.2 14
2019-06-02 13:00:00 33.2 3 Nordeste 16 Este 0 985.6 -0.7 15
2019-06-02 12:00:00 31 7 Este 18 Este 0 986 0.3 16
2019-06-02 11:00:00 29.6 6 Sudeste 17 Este 0 986.1 0.6 19
2019-06-02 10:00:00 27.1 4 Sudeste 14 Sudeste 0 986.3 1.3 23
2019-06-02 09:00:00 23.4 7 Sudeste 16 Sudeste 0 985.7 1.5 33
2019-06-02 08:00:00 18.4 4 Sudeste 9 Este 0 985.5 1.7 62
2019-06-02 07:00:00 15.8 6 Nordeste 14 Nordeste 0 985 1 67
2019-06-02 06:00:00 14.8 4 Noroeste 14 Sudeste 0 984.2 0.1 73
2019-06-02 05:00:00 17.1 8 Sudeste 13 Sudeste 0 983.8 -0.6 63
2019-06-02 04:00:00 17.2 6 Nordeste 15 Sur 0 984 -0.1 66
2019-06-02 03:00:00 18.4 9 Sur 16 Sur 0 984.1 -0.1 59
2019-06-02 02:00:00 18.8 5 Noroeste 21 Noroeste 0 984.4 0.3 58
2019-06-02 01:00:00 20.4 3 Sur 9 Sur 0 984.1 0.6 52
2019-06-02 00:00:00 21.2 4 Sur 6 Sudeste 0 984.2 0.7 52
2019-06-01 23:00:00 23.6 3 Sur 9 Nordeste 0 984.1 0.6 42
2019-06-01 22:00:00 27.8 6 Norte 12 Norte 0 983.5 -0.1 29
2019-06-01 21:00:00 31.6 3 Norte 10 Noroeste 0 983.5 -0.6 21
2019-06-01 20:00:00 33.9 4 Oeste 14 Noroeste 0 983.5 -1.2 14
2019-06-01 19:00:00 35.6 4 Sudoeste 15 Norte 0 983.6 -1.7 12
2019-06-01 18:00:00 36.1 6 Oeste 19 Oeste 0 984.1 -1.9 11
2019-06-01 17:00:00 36.4 5 Noroeste 18 Oeste 0 984.7 -2.3 11
2019-06-01 16:00:00 34.7 8 Nordeste 19 Norte 0 985.3 -2.5 13
2019-06-01 15:00:00 34.1 5 Noroeste 22 Nordeste 0 986 -2.3 14
2019-06-01 14:00:00 32.2 6 Nordeste 35 Este 0 987 -1.5 19
2019-06-01 13:00:00 30.8 7 Sudeste 23 Este 0 987.8 -0.9 20
2019-06-01 12:00:00 29.1 11 Este 23 Nordeste 0 988.3 -0.3 22
2019-06-01 11:00:00 26.6 14 Este 28 Este 0 988.5 0.1 27
2019-06-01 10:00:00 24.8 15 Este 25 Este 0 988.7 1 30
2019-06-01 09:00:00 22.3 12 Este 23 Este 0 988.6 1.6 35
2019-06-01 08:00:00 17.6 9 Este 13 Este 0 988.4 2 47
2019-06-01 07:00:00 14.5 5 Nordeste 16 Nordeste 0 987.7 1.4 66
2019-06-01 06:00:00 14.3 10 Nordeste 14 Nordeste 0 987 0.7 70
2019-06-01 05:00:00 15.6 6 Sudeste 14 Sudeste 0 986.4 0 68
2019-06-01 04:00:00 16.7 4 Sudeste 12 Nordeste 0 986.3 -0.3 70
2019-06-01 03:00:00 17.4 6 Nordeste 12 Nordeste 0 986.3 -0.1 67
2019-06-01 02:00:00 17.7 8 Nordeste 9 Nordeste 0 986.4 0.3 67
2019-06-01 01:00:00 19.5 3 Sur 9 Este 0 986.6 1 61
2019-06-01 00:00:00 21.1 6 Sudeste 13 Sudeste 0 986.4 1 58
2019-05-31 23:00:00 24.4 4 Norte 14 Norte 0 986.1 0.8 43
2019-05-31 22:00:00 27.6 6 Nordeste 10 Nordeste 0 985.6 -0.1 31
2019-05-31 21:00:00 31.4 4 Norte 8 Norte 0 985.4 -0.7 23
2019-05-31 20:00:00 33 3 Nordeste 8 Norte 0 985.3 -1.4 15
2019-05-31 19:00:00 34.3 4 Sudeste 15 Nordeste 0 985.7 -1.6 14
2019-05-31 18:00:00 34.6 7 Este 17 Oeste 0 986.1 -1.8 13
2019-05-31 17:00:00 34.2 10 Nordeste 22 Nordeste 0 986.7 -1.9 13
2019-05-31 16:00:00 34.3 5 Noroeste 19 Nordeste 0 987.3 -2 13
2019-05-31 15:00:00 33.5 6 Este 22 Sudeste 0 987.9 -1.8 14
2019-05-31 14:00:00 32.4 6 Nordeste 24 Nordeste 0 988.6 -1.4 15
2019-05-31 13:00:00 30.8 12 Este 27 Este 0 989.3 -1 18
2019-05-31 12:00:00 28.7 17 Este 27 Este 0 989.7 -0.5 22
2019-05-31 11:00:00 27.2 13 Este 29 Nordeste 0 990 -0.2 24
2019-05-31 10:00:00 24.9 15 Este 31 Este 0 990.3 0.7 28
2019-05-31 09:00:00 21.7 11 Este 18 Este 0 990.2 0.9 32
2019-05-31 08:00:00 18.3 4 Este 10 Este 0 990.2 1.1 51
2019-05-31 07:00:00 15.5 5 Nordeste 17 Nordeste 0 989.6 0.8 50
2019-05-31 06:00:00 15 8 Nordeste 13 Nordeste 0 989.3 0.3 54
2019-05-31 05:00:00 14.5 5 Norte 14 Este 0 989.1 0.4 64
2019-05-31 04:00:00 16 9 Este 18 Este 0 988.8 -0.1 61
2019-05-31 03:00:00 15.4 10 Nordeste 14 Nordeste 0 989 0.3 71
2019-05-31 02:00:00 16.2 3 Este 10 Sudeste 0 988.7 0.2 69
2019-05-31 01:00:00 17.3 4 Sur 7 Sur 0 988.9 1 68
2019-05-31 00:00:00 20.3 4 Este 10 Nordeste 0 988.7 1.3 52
2019-05-30 23:00:00 22.6 4 Nordeste 9 Nordeste 0 988.5 1.2 43
2019-05-30 22:00:00 25.7 5 Norte 9 Norte 0 987.9 0.4 32
2019-05-30 21:00:00 29.8 4 Norte 12 Norte 0 987.4 -0.5 23
2019-05-30 20:00:00 31.6 4 Norte 15 Norte 0 987.3 -1.2 15
2019-05-30 19:00:00 32.4 8 Nordeste 15 Nordeste 0 987.5 -1.6 15
2019-05-30 18:00:00 33 8 Nordeste 20 Nordeste 0 987.9 -2.1 15
2019-05-30 17:00:00 32.2 10 Nordeste 25 Nordeste 0 988.5 -2.2 15
2019-05-30 16:00:00 31.4 9 Este 30 Este 0 989.1 -2.3 16
2019-05-30 15:00:00 29.9 12 Nordeste 25 Este 0 990 -1.9 18
2019-05-30 14:00:00 28.8 16 Este 31 Este 0 990.7 -1.6 20
2019-05-30 13:00:00 27.4 15 Este 35 Sudeste 0 991.4 -1.1 23
2019-05-30 12:00:00 26.1 15 Este 35 Este 0 991.9 -0.7 25
2019-05-30 11:00:00 24.1 17 Este 37 Este 0 992.3 0.3 28
2019-05-30 10:00:00 22.2 18 Este 40 Este 0 992.5 1 30
2019-05-30 09:00:00 20.5 12 Este 22 Este 0 992.6 1.5 35
2019-05-30 08:00:00 17.6 7 Este 13 Este 0 992 1.2 44
2019-05-30 07:00:00 15 2 Este 13 Este 0 991.5 0.9 51
2019-05-30 06:00:00 16.9 9 Este 17 Nordeste 0 991.1 0.8 44
2019-05-30 05:00:00 15.1 10 Nordeste 15 Nordeste 0 990.8 0.9 51
2019-05-30 04:00:00 14.6 2 Este 14 Nordeste 0 990.6 0.9 55
2019-05-30 03:00:00 16.8 8 Nordeste 11 Nordeste 0 990.3 1.1 43
2019-05-30 02:00:00 19 8 Este 17 Este 0 989.9 1.2 32
2019-05-30 01:00:00 18.6 7 Este 15 Sur 0 989.7 1.8 35
2019-05-30 00:00:00 21.2 4 Este 17 Este 0 989.2 1.9 30
2019-05-29 23:00:00 22.2 9 Sudeste 17 Sudeste 0 988.7 1.7 30
2019-05-29 22:00:00 23.8 3 Norte 7 Nordeste 0 987.9 0.7 37
2019-05-29 21:00:00 27.8 3 Nordeste 10 Norte 0 987.3 -0.1 26
2019-05-29 20:00:00 28.9 6 Nordeste 14 Nordeste 0 987 -0.9 21
2019-05-29 19:00:00 29.9 2 Norte 22 Norte 0 987.2 -1.2 19
2019-05-29 18:00:00 29.7 6 Este 19 Este 0 987.4 -1.5 19
2019-05-29 17:00:00 29.8 7 Este 18 Este 0 987.9 -1.7 18
2019-05-29 16:00:00 28.5 12 Este 26 Este 0 988.4 -1.7 19
2019-05-29 15:00:00 27.3 12 Este 27 Nordeste 0 988.9 -1.5 21
2019-05-29 14:00:00 25.9 10 Este 30 Este 0 989.6 -0.9 23
2019-05-29 13:00:00 24 14 Nordeste 31 Este 0 990.1 -0.3 25
2019-05-29 12:00:00 22.2 15 Este 33 Este 0 990.4 0.3 28
2019-05-29 11:00:00 21.1 14 Este 37 Este 0 990.5 1 30
2019-05-29 10:00:00 19.7 17 Este 38 Este 0 990.4 1.8 31
2019-05-29 09:00:00 18.2 16 Este 38 Sudeste 0 990.1 2.1 34
2019-05-29 08:00:00 16.3 10 Nordeste 20 Nordeste 0 989.5 1.9 43
2019-05-29 07:00:00 13.9 10 Nordeste 17 Nordeste 0 988.6 1.3 50
2019-05-29 06:00:00 14.8 6 Nordeste 17 Este 0 988 1 46
2019-05-29 05:00:00 16.2 9 Este 17 Este 0 987.6 1 42
2019-05-29 04:00:00 16.7 9 Este 17 Nordeste 0 987.3 1.5 40
2019-05-29 03:00:00 18.6 10 Este 21 Este 0 987 2 32
2019-05-29 02:00:00 20.1 8 Este 25 Sudeste 0 986.6 2.6 30
2019-05-29 01:00:00 21.5 12 Sudeste 34 Sudeste 0 985.8 2.8 29
2019-05-29 00:00:00 21.6 10 Sudeste 26 Sudeste 0 985 2.7 28
2019-05-28 23:00:00 22.5 6 Sudeste 21 Sudeste 0 984 2.4 26
2019-05-28 22:00:00 24 7 Sudeste 17 Sudeste 0 983 1.5 24
2019-05-28 21:00:00 27.5 5 Nordeste 15 Nordeste 0 982.3 0.7 21
2019-05-28 20:00:00 29.4 12 Nordeste 25 Nordeste 0 981.6 -0.1 15
2019-05-28 19:00:00 31.2 4 Noroeste 19 Nordeste 0 981.5 -0.4 17
2019-05-28 18:00:00 31.4 11 Nordeste 21 Nordeste 0 981.6 -0.7 15
2019-05-28 17:00:00 31.7 8 Norte 24 Nordeste 0 981.7 -1.1 15
2019-05-28 16:00:00 31.3 6 Este 17 Nordeste 0 981.9 -1.2 16
2019-05-28 15:00:00 30.6 4 Noroeste 15 Norte 0 982.3 -0.8 22
2019-05-28 14:00:00 29.1 4 Norte 20 Este 0 982.8 -0.3 23
2019-05-28 13:00:00 28.2 8 Sudeste 21 Este 0 983.1 0 25
2019-05-28 12:00:00 26.6 9 Este 25 Este 0 983.1 0.2 29
2019-05-28 11:00:00 24.7 11 Este 32 Este 0 983.1 0.5 32
2019-05-28 10:00:00 22.8 13 Este 25 Sudeste 0 983.1 1.1 36
2019-05-28 09:00:00 20.7 10 Este 18 Este 0 982.9 1.6 45
2019-05-28 08:00:00 18.2 4 Sudeste 10 Este 0 982.6 1.7 53
2019-05-28 07:00:00 15.3 5 Este 14 Este 0 982 1.3 63
2019-05-28 06:00:00 16 8 Este 13 Nordeste 0 981.3 1 60
2019-05-28 05:00:00 17.3 8 Este 15 Nordeste 0 980.9 0.8 54
2019-05-28 04:00:00 18.2 8 Este 20 Este 0 980.7 1.2 50
2019-05-28 03:00:00 17.5 9 Nordeste 15 Nordeste 0 980.3 1 56
2019-05-28 02:00:00 17.9 9 Este 13 Nordeste 0 980.1 1 54
2019-05-28 01:00:00 21.2 5 Sur 19 Sudeste 0 979.5 1.2 41
2019-05-28 00:00:00 20.7 6 Sur 9 Sur 0 979.3 1 44
2019-05-27 23:00:00 23.5 4 Sur 15 Noroeste 0 979.1 1.1 36
2019-05-27 22:00:00 25.4 5 Oeste 18 Noroeste 0 978.3 0.4 31
2019-05-27 21:00:00 28.8 5 Noroeste 22 Noroeste 0 978.3 0.4 24
2019-05-27 20:00:00 30.7 8 Noroeste 24 Noroeste 0 978 -0.3 21
2019-05-27 19:00:00 31.9 12 Noroeste 39 Noroeste 0 977.9 -1.1 17
2019-05-27 18:00:00 32.9 15 Noroeste 38 Noroeste 0 977.9 -1.6 16
2019-05-27 17:00:00 33.3 9 Noroeste 36 Oeste 0 978.3 -2.2 16
2019-05-27 16:00:00 32.6 14 Oeste 32 Noroeste 0 979 -2.4 18
2019-05-27 15:00:00 31.9 12 Oeste 28 Oeste 0 979.5 -2.5 23
2019-05-27 14:00:00 30.1 5 Oeste 23 Noroeste 0 980.5 -1.9 25
2019-05-27 13:00:00 29 8 Oeste 18 Oeste 0 981.4 -1.4 24
2019-05-27 12:00:00 27.9 4 Norte 12 Norte 0 982 -0.8 26
2019-05-27 11:00:00 26.2 3 Este 8 Este 0 982.4 -0.1 30
2019-05-27 10:00:00 23.6 3 Este 9 Este 0 982.8 0.5 37
2019-05-27 09:00:00 19.2 4 Nordeste 7 Norte 0 982.8 0.5 54
2019-05-27 08:00:00 14.5 3 Oeste 9 Sudeste 0 982.5 0.2 71
2019-05-27 07:00:00 12.6 4 Este 8 Nordeste 0 982.3 -0.3 76
2019-05-27 06:00:00 13.4 4 Nordeste 10 Este 0 982.3 -0.4 73
2019-05-27 05:00:00 13.9 6 Este 8 Sudeste 0 982.3 -0.8 69
2019-05-27 04:00:00 14.3 3 Sudoeste 13 Nordeste 0 982.6 -0.8 66
2019-05-27 03:00:00 15.5 10 Este 14 Este 0 982.7 -0.9 61
2019-05-27 02:00:00 15.8 3 Noroeste 9 Sudoeste 0 983.1 -0.2 62
2019-05-27 01:00:00 17.7 5 Sur 12 Sur 0 983.4 0.5 50
2019-05-27 00:00:00 20.1 4 Noroeste 14 Sudeste 0 983.6 1.1 43
2019-05-26 23:00:00 23.7 6 Nordeste 15 Norte 0 983.3 0.9 30
2019-05-26 22:00:00 25.2 7 Norte 15 Nordeste 0 982.9 0.5 28
2019-05-26 21:00:00 28.2 4 Norte 11 Norte 0 982.5 -0.4 26
2019-05-26 20:00:00 29.8 6 Nordeste 12 Nordeste 0 982.4 -1 20
2019-05-26 19:00:00 31 4 Sur 15 Sur 0 982.4 -1.7 21
2019-05-26 18:00:00 30.8 8 Este 18 Este 0 982.9 -1.7 21
2019-05-26 17:00:00 30.3 6 Este 19 Sudeste 0 983.4 -2.2 20
2019-05-26 16:00:00 29.9 5 Noroeste 21 Sudoeste 0 984.1 -2.4 21
2019-05-26 15:00:00 28.3 6 Noroeste 21 Noroeste 0 984.6 -2.3 23
2019-05-26 14:00:00 26.9 6 Oeste 15 Oeste 0 985.6 -1.7 26
2019-05-26 13:00:00 25.4 6 Oeste 15 Este 0 986.5 -1.1 28
2019-05-26 12:00:00 24.3 6 Sudeste 17 Este 0 986.9 -0.6 29
2019-05-26 11:00:00 22.3 5 Este 18 Este 0 987.3 -0.4 32
2019-05-26 10:00:00 20.7 9 Nordeste 21 Este 0 987.6 0.5 35
2019-05-26 09:00:00 18.3 7 Nordeste 15 Este 0 987.5 0.7 48
2019-05-26 08:00:00 15 9 Nordeste 18 Este 0 987.7 0.9 56
2019-05-26 07:00:00 10.7 4 Nordeste 10 Este 0 987.1 0.3 69
2019-05-26 06:00:00 11.5 3 Este 10 Este 0 986.8 0.2 65
2019-05-26 05:00:00 12.6 6 Nordeste 10 Nordeste 0 986.8 0.4 62
2019-05-26 04:00:00 12.9 7 Nordeste 10 Nordeste 0 986.8 0.4 59
2019-05-26 03:00:00 13.4 4 Nordeste 10 Noroeste 0 986.6 0.3 60
2019-05-26 02:00:00 14.6 3 Sudeste 14 Norte 0 986.4 0.3 52
2019-05-26 01:00:00 17 5 Norte 17 Este 0 986.4 1.1 46
2019-05-26 00:00:00 18.7 6 Sudeste 12 Este 0 986.3 1.5 39